createdAt,value
2023-03-13T00:00:52.186Z,99506.06
2023-03-13T00:03:18.663Z,99497.78
2023-03-13T00:05:45.091Z,99501.88
2023-03-13T00:08:11.488Z,99488.19
2023-03-13T00:10:38.571Z,99480.69
2023-03-13T00:13:05.429Z,99480.13
2023-03-13T00:15:31.856Z,99472.16
2023-03-13T00:17:59.438Z,99475.38
2023-03-13T00:20:25.890Z,99467.91
2023-03-13T00:22:52.269Z,99465.22
2023-03-13T00:25:18.718Z,99455.03
2023-03-13T00:27:45.094Z,99451.88
2023-03-13T00:30:11.797Z,99448.13
2023-03-13T00:32:42.296Z,99435.25
2023-03-13T00:35:08.772Z,99434.22
2023-03-13T00:37:35.128Z,99431.53
2023-03-13T00:40:01.539Z,99441.19
2023-03-13T00:42:27.890Z,99431.81
2023-03-13T00:44:54.264Z,99429.97
2023-03-13T00:47:20.621Z,99433.78
2023-03-13T00:49:47.029Z,99423.84
2023-03-13T00:52:13.388Z,99418.78
2023-03-13T00:54:39.789Z,99410.47
2023-03-13T00:57:06.164Z,99408.59
2023-03-13T00:59:32.544Z,99411.63
2023-03-13T01:01:58.951Z,99409.75
2023-03-13T01:04:25.419Z,99405.50
2023-03-13T01:06:51.788Z,99424.81
2023-03-13T01:09:18.212Z,99423.25
2023-03-13T01:11:45.159Z,99404.75
2023-03-13T01:14:13.318Z,99401.56
2023-03-13T01:16:40.696Z,99395.13
2023-03-13T01:19:10.195Z,99401.88
2023-03-13T01:21:38.384Z,99389.09
2023-03-13T01:24:05.080Z,99383.72
2023-03-13T01:26:31.494Z,99379.47
2023-03-13T01:28:57.945Z,99388.66
2023-03-13T01:31:24.324Z,99392.16
2023-03-13T01:33:52.097Z,99381.72
2023-03-13T01:36:19.046Z,99367.22
2023-03-13T01:38:48.317Z,99373.72
2023-03-13T01:41:14.684Z,99360.81
2023-03-13T01:43:41.112Z,99360.31
2023-03-13T01:46:07.510Z,99373.53
2023-03-13T01:48:33.882Z,99348.25
2023-03-13T01:51:01.507Z,99345.31
2023-03-13T01:53:30.098Z,99343.19
2023-03-13T01:55:57.696Z,99332.44
2023-03-13T01:58:24.622Z,99332.75
2023-03-13T02:00:51.006Z,99328.19
2023-03-13T02:03:19.923Z,99325.00
2023-03-13T02:05:47.794Z,99308.88
2023-03-13T02:08:19.119Z,99292.72
2023-03-13T02:10:50.577Z,99286.25
2023-03-13T02:13:17.680Z,99288.41
2023-03-13T02:15:44.886Z,99287.81
2023-03-13T02:18:11.420Z,99265.81
2023-03-13T02:20:38.872Z,99269.00
2023-03-13T02:23:20.461Z,99275.47
2023-03-13T02:25:48.166Z,99252.78
2023-03-13T02:28:14.523Z,99243.69
2023-03-13T02:30:42.665Z,99242.34
2023-03-13T02:33:09.112Z,99234.56
2023-03-13T02:35:36.106Z,99231.06
2023-03-13T02:38:05.378Z,99227.28
2023-03-13T02:40:35.016Z,99217.34
2023-03-13T02:43:02.953Z,99218.41
2023-03-13T02:45:29.352Z,99195.28
2023-03-13T02:47:55.744Z,99208.72
2023-03-13T02:50:23.380Z,99199.59
2023-03-13T02:52:58.843Z,99186.72
2023-03-13T02:55:28.357Z,99191.25
2023-03-13T02:57:54.782Z,99190.47
2023-03-13T03:00:26.430Z,99166.78
2023-03-13T03:02:54.249Z,99157.13
2023-03-13T03:05:22.239Z,99147.09
2023-03-13T03:07:49.128Z,99142.03
2023-03-13T03:10:16.126Z,99131.28
2023-03-13T03:12:42.532Z,99128.34
2023-03-13T03:15:09.576Z,99122.16
2023-03-13T03:17:36.944Z,99115.69
2023-03-13T03:20:07.849Z,99105.19
2023-03-13T03:22:34.783Z,99096.06
2023-03-13T03:25:01.239Z,99095.25
2023-03-13T03:27:29.793Z,99088.00
2023-03-13T03:29:56.226Z,99080.47
2023-03-13T03:32:22.760Z,99079.66
2023-03-13T03:34:49.171Z,99054.91
2023-03-13T03:37:15.513Z,99032.31
2023-03-13T03:39:41.855Z,99023.69
2023-03-13T03:42:09.700Z,99023.69
2023-03-13T03:44:36.133Z,99029.06
2023-03-13T03:47:02.685Z,99027.94
2023-03-13T03:49:29.173Z,99028.75
2023-03-13T03:51:55.605Z,99018.31
2023-03-13T03:54:22.004Z,99023.69
2023-03-13T03:56:48.355Z,99010.78
2023-03-13T03:59:14.709Z,99012.94
2023-03-13T04:01:41.142Z,98990.38
2023-03-13T04:04:07.507Z,99005.41
2023-03-13T04:06:33.902Z,98988.47
2023-03-13T04:09:00.345Z,98980.13
2023-03-13T04:11:26.683Z,98973.94
2023-03-13T04:13:53.122Z,98995.22
2023-03-13T04:16:19.617Z,98971.53
2023-03-13T04:18:46.050Z,98971.28
2023-03-13T04:21:12.453Z,98968.59
2023-03-13T04:23:38.817Z,98972.09
2023-03-13T04:26:05.189Z,98973.72
2023-03-13T04:28:31.600Z,98964.03
2023-03-13T04:30:58.358Z,98979.38
2023-03-13T04:33:25.158Z,98986.91
2023-03-13T04:35:51.641Z,99006.03
2023-03-13T04:38:18.009Z,98988.78
2023-03-13T04:40:46.935Z,98960.31
2023-03-13T04:43:13.323Z,98943.63
2023-03-13T04:45:39.657Z,98943.63
2023-03-13T04:48:06.426Z,98936.63
2023-03-13T04:50:32.917Z,98919.69
2023-03-13T04:52:59.374Z,98919.38
2023-03-13T04:55:25.865Z,98911.88
2023-03-13T04:57:52.297Z,98905.41
2023-03-13T05:00:18.903Z,98909.16
2023-03-13T05:02:45.350Z,98907.00
2023-03-13T05:05:11.799Z,98909.66
2023-03-13T05:07:38.294Z,98888.16
2023-03-13T05:10:05.024Z,98906.97
2023-03-13T05:12:31.520Z,98885.97
2023-03-13T05:14:58.161Z,98868.50
2023-03-13T05:17:24.650Z,98854.78
2023-03-13T05:19:51.060Z,98855.88
2023-03-13T05:22:17.470Z,98852.66
2023-03-13T05:24:43.859Z,98848.91
2023-03-13T05:27:10.336Z,98841.91
2023-03-13T05:29:36.893Z,98849.97
2023-03-13T05:32:03.425Z,98837.03
2023-03-13T05:34:29.839Z,98837.31
2023-03-13T05:36:56.267Z,98831.94
2023-03-13T05:39:22.881Z,98839.75
2023-03-13T05:41:49.297Z,98827.63
2023-03-13T05:44:15.847Z,98843.53
2023-03-13T05:46:42.260Z,98820.41
2023-03-13T05:49:09.025Z,98817.75
2023-03-13T05:51:35.487Z,98819.88
2023-03-13T05:54:01.923Z,98818.78
2023-03-13T05:56:28.374Z,98808.56
2023-03-13T05:58:54.809Z,98804.81
2023-03-13T06:01:21.301Z,98798.38
2023-03-13T06:03:47.781Z,98799.44
2023-03-13T06:06:14.364Z,98795.69
2023-03-13T06:08:40.879Z,98793.78
2023-03-13T06:11:07.345Z,98808.06
2023-03-13T06:13:33.833Z,98786.53
2023-03-13T06:16:00.471Z,98809.13
2023-03-13T06:18:27.242Z,98782.50
2023-03-13T06:21:02.021Z,98809.97
2023-03-13T06:23:28.741Z,98788.44
2023-03-13T06:25:55.318Z,98799.47
2023-03-13T06:28:21.903Z,98809.69
2023-03-13T06:30:48.352Z,98798.38
2023-03-13T06:33:14.786Z,98787.06
2023-03-13T06:35:55.132Z,98785.72
2023-03-13T06:38:23.174Z,98777.41
2023-03-13T06:40:49.582Z,98776.88
2023-03-13T06:43:16.035Z,98773.63
2023-03-13T06:45:42.431Z,98779.56
2023-03-13T06:48:08.917Z,98768.78
2023-03-13T06:50:38.258Z,98785.47
2023-03-13T06:53:04.787Z,98772.00
2023-03-13T06:55:31.286Z,98759.88
2023-03-13T06:57:57.811Z,98787.09
2023-03-13T07:00:24.451Z,98751.53
2023-03-13T07:02:51.557Z,98769.31
2023-03-13T07:05:17.962Z,98765.00
2023-03-13T07:07:44.358Z,98764.72
2023-03-13T07:10:11.152Z,98768.25
2023-03-13T07:12:37.759Z,98781.94
2023-03-13T07:15:04.795Z,98775.22
2023-03-13T07:17:31.379Z,98774.13
2023-03-13T07:19:57.904Z,98793.00
2023-03-13T07:22:24.461Z,98779.53
2023-03-13T07:24:50.903Z,98787.88
2023-03-13T07:27:17.594Z,98796.75
2023-03-13T07:29:44.048Z,98782.44
2023-03-13T07:32:10.510Z,98770.31
2023-03-13T07:34:36.960Z,98776.25
2023-03-13T07:37:03.437Z,98757.13
2023-03-13T07:39:29.950Z,98778.13
2023-03-13T07:41:56.500Z,98787.56
2023-03-13T07:44:23.290Z,98776.75
2023-03-13T07:46:50.242Z,98798.84
2023-03-13T07:49:16.782Z,98791.03
2023-03-13T07:51:44.520Z,98795.84
2023-03-13T07:54:11.756Z,98787.47
2023-03-13T07:56:38.472Z,98797.16
2023-03-13T07:59:05.463Z,98792.81
2023-03-13T08:01:31.963Z,98799.84
2023-03-13T08:04:01.160Z,98788.50
2023-03-13T08:06:30.888Z,98798.19
2023-03-13T08:08:58.924Z,98778.78
2023-03-13T08:11:26.635Z,98778.19
2023-03-13T08:13:53.786Z,98786.03
2023-03-13T08:16:21.575Z,98785.19
2023-03-13T08:18:49.377Z,98804.63
2023-03-13T08:21:17.227Z,98781.97
2023-03-13T08:23:44.255Z,98792.22
2023-03-13T08:26:14.832Z,98798.41
2023-03-13T08:28:41.743Z,98798.69
2023-03-13T08:31:09.411Z,98829.69
2023-03-13T08:33:36.108Z,98802.97
2023-03-13T08:36:10.524Z,98804.34
2023-03-13T08:38:37.860Z,98790.84
2023-03-13T08:41:04.591Z,98787.03
2023-03-13T08:43:31.107Z,98795.16
2023-03-13T08:45:57.527Z,98793.25
2023-03-13T08:48:24.152Z,98777.53
2023-03-13T08:51:10.865Z,98788.31
2023-03-13T08:53:38.226Z,98779.41
2023-03-13T08:56:05.255Z,98780.22
2023-03-13T08:58:32.023Z,98775.34
2023-03-13T09:01:03.413Z,98781.78
2023-03-13T09:03:30.359Z,98770.97
2023-03-13T09:05:57.576Z,98779.25
2023-03-13T09:08:24.208Z,98755.75
2023-03-13T09:10:57.687Z,98760.59
2023-03-13T09:13:24.900Z,98770.78
2023-03-13T09:15:55.059Z,98753.72
2023-03-13T09:18:21.632Z,98751.75
2023-03-13T09:20:49.071Z,98738.00
2023-03-13T09:23:15.575Z,98746.75
2023-03-13T09:25:41.980Z,98754.59
2023-03-13T09:28:08.372Z,98733.09
2023-03-13T09:30:34.842Z,98725.22
2023-03-13T09:33:01.333Z,98698.84
2023-03-13T09:35:27.805Z,98703.91
2023-03-13T09:37:54.268Z,98715.94
2023-03-13T09:40:22.535Z,98705.00
2023-03-13T09:42:54.417Z,98704.94
2023-03-13T09:45:34.153Z,98691.78
2023-03-13T09:48:20.862Z,98684.66
2023-03-13T09:50:54.988Z,98692.41
2023-03-13T09:53:31.151Z,98696.34
2023-03-13T09:55:57.782Z,98690.88
2023-03-13T09:58:26.006Z,98700.47
2023-03-13T10:01:02.346Z,98702.06
2023-03-13T10:03:35.593Z,98687.66
2023-03-13T10:06:04.315Z,98664.25
2023-03-13T10:08:31.845Z,98682.88
2023-03-13T10:11:01.302Z,98699.72
2023-03-13T10:13:36.406Z,98683.91
2023-03-13T10:16:09.776Z,98696.94
2023-03-13T10:18:37.019Z,98691.34
2023-03-13T10:21:12.237Z,98711.22
2023-03-13T10:23:40.452Z,98695.53
2023-03-13T10:26:15.324Z,98703.56
2023-03-13T10:28:41.811Z,98679.34
2023-03-13T10:31:12.724Z,98717.50
2023-03-13T10:33:44.909Z,98696.63
2023-03-13T10:36:12.976Z,98686.22
2023-03-13T10:38:48.712Z,98693.06
2023-03-13T10:41:35.528Z,98695.47
2023-03-13T10:44:06.556Z,98710.91
2023-03-13T10:46:35.022Z,98697.81
2023-03-13T10:49:02.918Z,98730.00
2023-03-13T10:51:39.377Z,98708.94
2023-03-13T10:54:13.917Z,98709.75
2023-03-13T10:56:40.407Z,98713.59
2023-03-13T10:59:21.354Z,98698.84
2023-03-13T11:01:48.319Z,98722.66
2023-03-13T11:04:30.115Z,98718.03
2023-03-13T11:07:02.356Z,98692.63
2023-03-13T11:09:28.876Z,98694.34
2023-03-13T11:11:56.716Z,98687.75
2023-03-13T11:14:24.581Z,98672.28
2023-03-13T11:16:53.809Z,98664.28
2023-03-13T11:19:34.086Z,98654.81
2023-03-13T11:22:19.355Z,98655.72
2023-03-13T11:25:04.409Z,98640.16
2023-03-13T11:27:42.871Z,98668.53
2023-03-13T11:30:15.569Z,98653.94
2023-03-13T11:32:43.380Z,98645.59
2023-03-13T11:35:18.852Z,98655.59
2023-03-13T11:37:46.342Z,98663.25
2023-03-13T11:40:15.751Z,98648.56
2023-03-13T11:43:03.367Z,98652.59
2023-03-13T11:45:52.130Z,98669.19
2023-03-13T11:48:18.639Z,98636.25
2023-03-13T11:51:03.792Z,98656.69
2023-03-13T11:53:30.213Z,98623.19
2023-03-13T11:56:08.963Z,98644.28
2023-03-13T11:58:45.748Z,98641.28
2023-03-13T12:01:17.530Z,98632.00
2023-03-13T12:03:51.719Z,98631.22
2023-03-13T12:06:28.231Z,98641.66
2023-03-13T12:08:58.689Z,98609.53
2023-03-13T12:11:31.417Z,98610.25
2023-03-13T12:14:02.393Z,98630.56
2023-03-13T12:16:40.919Z,98606.13
2023-03-13T12:19:11.145Z,98591.66
2023-03-13T12:21:42.801Z,98614.09
2023-03-13T12:24:23.004Z,98621.72
2023-03-13T12:27:07.993Z,98592.59
2023-03-13T12:29:34.542Z,98575.19
2023-03-13T12:32:07.307Z,98597.75
2023-03-13T12:34:39.864Z,98591.34
2023-03-13T12:37:12.495Z,98577.84
2023-03-13T12:39:55.467Z,98566.66
2023-03-13T12:42:27.109Z,98573.13
2023-03-13T12:44:54.055Z,98589.63
2023-03-13T12:47:43.623Z,98539.06
2023-03-13T12:50:24.177Z,98531.91
2023-03-13T12:53:01.923Z,98524.59
2023-03-13T12:55:48.632Z,98535.34
2023-03-13T12:58:34.784Z,98533.13
2023-03-13T13:01:03.100Z,98522.09
2023-03-13T13:03:40.207Z,98510.56
2023-03-13T13:06:06.751Z,98513.63
2023-03-13T13:08:38.685Z,98509.59
2023-03-13T13:11:24.447Z,98518.88
2023-03-13T13:13:50.951Z,98540.03
2023-03-13T13:16:20.493Z,98491.19
2023-03-13T13:18:47.032Z,98513.47
2023-03-13T13:21:16.712Z,98476.97
2023-03-13T13:23:47.058Z,98492.16
2023-03-13T13:26:29.724Z,98471.66
2023-03-13T13:29:11.283Z,98468.44
2023-03-13T13:31:51.081Z,98461.88
2023-03-13T13:34:34.595Z,98467.00
2023-03-13T13:37:24.167Z,98470.34
2023-03-13T13:39:52.544Z,98458.00
2023-03-13T13:42:31.270Z,98444.56
2023-03-13T13:44:58.962Z,98457.72
2023-03-13T13:47:26.860Z,98435.75
2023-03-13T13:49:55.538Z,98445.19
2023-03-13T13:52:38.714Z,98463.59
2023-03-13T13:55:23.802Z,98444.97
2023-03-13T13:57:52.318Z,98442.41
2023-03-13T14:00:21.140Z,98443.06
2023-03-13T14:02:52.044Z,98418.34
2023-03-13T14:05:23.692Z,98429.72
2023-03-13T14:07:50.173Z,98426.34
2023-03-13T14:10:35.255Z,98424.38
2023-03-13T14:13:02.662Z,98406.41
2023-03-13T14:15:30.153Z,98420.81
2023-03-13T14:18:01.282Z,98395.31
2023-03-13T14:20:51.076Z,98405.69
2023-03-13T14:23:28.913Z,98409.34
2023-03-13T14:25:55.374Z,98407.38
2023-03-13T14:28:23.661Z,98417.00
2023-03-13T14:30:52.492Z,98417.47
2023-03-13T14:33:19.385Z,98403.63
2023-03-13T14:35:46.378Z,98406.69
2023-03-13T16:49:41.808Z,98261.88
2023-03-13T16:52:13.425Z,98249.41
2023-03-13T16:54:39.798Z,98238.22
2023-03-13T16:57:09.465Z,98247.22
2023-03-13T16:59:35.914Z,98233.63
2023-03-13T17:02:02.258Z,98265.63
2023-03-13T17:04:28.663Z,98253.47
2023-03-13T17:06:55.257Z,98260.81
2023-03-13T17:09:21.725Z,98276.50
2023-03-13T17:11:48.107Z,98256.34
2023-03-13T17:14:14.456Z,98256.34
2023-03-13T17:16:44.676Z,98244.03
2023-03-13T17:19:13.308Z,98239.25
2023-03-13T17:21:39.654Z,98250.59
2023-03-13T17:24:07.685Z,98248.53
2023-03-13T17:26:38.773Z,98245.19
2023-03-13T17:29:06.087Z,98262.09
2023-03-13T17:31:37.478Z,98249.13
2023-03-13T17:34:07.665Z,98239.69
2023-03-13T17:36:34.925Z,98237.44
2023-03-13T17:39:02.318Z,98239.34
2023-03-13T17:41:29.984Z,98248.16
2023-03-13T17:43:56.583Z,98245.25
2023-03-13T17:46:23.058Z,98245.72
2023-03-13T17:48:53.148Z,98251.78
2023-03-13T17:51:19.554Z,98250.78
2023-03-13T17:53:46.160Z,98243.63
2023-03-13T17:56:13.830Z,98243.44
2023-03-13T17:58:40.584Z,98244.41
2023-03-13T18:01:07.030Z,98244.34
2023-03-13T18:03:33.399Z,98252.03
2023-03-13T18:05:59.804Z,98249.63
2023-03-13T18:08:26.144Z,98243.38
2023-03-13T18:10:52.548Z,98249.94
2023-03-13T18:13:18.908Z,98232.69
2023-03-13T18:15:45.328Z,98253.28
2023-03-13T18:18:15.150Z,98257.09
2023-03-13T18:20:41.679Z,98269.69
2023-03-13T18:23:08.122Z,98254.53
2023-03-13T18:25:34.732Z,98259.16
2023-03-13T18:28:01.921Z,98262.19
2023-03-13T18:30:28.612Z,98266.78
2023-03-13T18:32:55.041Z,98255.16
2023-03-13T18:35:21.413Z,98268.53
2023-03-13T18:37:47.937Z,98265.03
2023-03-13T18:40:18.850Z,98257.53
2023-03-13T18:42:45.706Z,98252.91
2023-03-13T18:45:16.418Z,98247.78
2023-03-13T18:47:42.990Z,98245.41
2023-03-13T18:50:15.401Z,98243.00
2023-03-13T18:52:41.741Z,98246.81
2023-03-13T18:55:08.308Z,98252.25
2023-03-13T18:57:34.653Z,98254.41
2023-03-13T19:00:01.077Z,98253.44
2023-03-13T19:02:27.651Z,98249.63
2023-03-13T19:04:54.084Z,98230.16
2023-03-13T19:07:24.908Z,98217.72
2023-03-13T19:09:51.273Z,98190.09
2023-03-13T19:12:17.670Z,98190.88
2023-03-13T19:14:44.036Z,98183.72
2023-03-13T19:17:23.048Z,98191.84
2023-03-13T19:19:49.435Z,98201.59
2023-03-13T19:22:15.843Z,98203.78
2023-03-13T19:24:42.247Z,98187.06
2023-03-13T19:27:13.127Z,98187.06
2023-03-13T19:29:39.520Z,98170.78
2023-03-13T19:32:07.373Z,98175.72
2023-03-13T19:34:33.797Z,98172.22
2023-03-13T19:37:00.178Z,98161.97
2023-03-13T19:39:26.610Z,98158.47
2023-03-13T19:41:58.557Z,98179.66
2023-03-13T19:44:25.141Z,98178.56
2023-03-13T19:46:51.690Z,98198.34
2023-03-13T19:49:19.364Z,98190.50
2023-03-13T19:51:45.820Z,98202.00
2023-03-13T19:54:12.201Z,98206.31
2023-03-13T19:56:39.879Z,98205.81
2023-03-13T19:59:16.937Z,98197.84
2023-03-13T20:01:43.998Z,98206.31
2023-03-13T20:04:10.716Z,98195.47
2023-03-13T20:06:39.415Z,98197.06
2023-03-13T20:09:07.293Z,98190.81
2023-03-13T20:11:33.700Z,98186.22
2023-03-13T20:14:00.164Z,98198.63
2023-03-13T20:16:28.024Z,98203.59
2023-03-13T20:18:57.515Z,98203.59
2023-03-13T20:21:24.428Z,98198.16
2023-03-13T20:23:51.373Z,98193.53
2023-03-13T20:26:18.931Z,98192.25
2023-03-13T20:28:46.949Z,98202.00
2023-03-13T20:31:13.888Z,98200.38
2023-03-13T20:33:40.575Z,98205.81
2023-03-13T20:36:09.343Z,98204.22
2023-03-13T20:38:35.881Z,98201.00
2023-03-13T20:41:02.370Z,98185.84
2023-03-13T20:43:29.141Z,98185.38
2023-03-13T20:45:55.618Z,98221.09
2023-03-13T20:48:22.122Z,98237.34
2023-03-13T20:50:52.594Z,98235.78
2023-03-13T20:53:19.339Z,98207.84
2023-03-13T20:55:46.059Z,98199.25
2023-03-13T20:58:12.646Z,98193.00
2023-03-13T21:00:39.014Z,98192.22
2023-03-13T21:03:05.578Z,98210.38
2023-03-13T21:05:31.954Z,98216.63
2023-03-13T21:07:58.306Z,98209.91
2023-03-13T21:10:24.714Z,98193.66
2023-03-13T21:12:51.070Z,98204.50
2023-03-13T21:15:17.548Z,98193.97
2023-03-13T21:17:43.994Z,98208.94
2023-03-13T21:20:13.385Z,98207.00
2023-03-13T21:22:40.833Z,98201.91
2023-03-13T21:25:08.396Z,98193.28
2023-03-13T21:27:35.722Z,98180.84
2023-03-13T21:30:04.028Z,98173.03
2023-03-13T21:32:30.525Z,98187.38
2023-03-13T21:34:56.915Z,98182.09
2023-03-13T21:37:23.716Z,98184.31
2023-03-13T21:39:50.763Z,98171.38
2023-03-13T21:42:18.046Z,98167.06
2023-03-13T21:44:45.538Z,98172.00
2023-03-13T21:47:12.204Z,98178.53
2023-03-13T21:52:10.068Z,98175.34
2023-03-13T21:54:36.419Z,98172.13
2023-03-13T21:57:02.875Z,98170.06
2023-03-13T21:59:30.441Z,98162.53
2023-03-13T22:01:56.897Z,98166.06
2023-03-13T22:04:23.339Z,98166.38
2023-03-13T22:06:49.724Z,98152.31
2023-03-13T22:09:16.186Z,98139.88
2023-03-13T22:11:42.593Z,98105.78
2023-03-13T22:14:08.941Z,98099.56
2023-03-13T22:16:35.438Z,98097.16
2023-03-13T22:19:02.751Z,98082.03
2023-03-13T22:21:29.157Z,98073.91
2023-03-13T22:23:55.497Z,98075.31
2023-03-13T22:26:21.935Z,98071.81
2023-03-13T22:28:48.360Z,98080.25
2023-03-13T22:31:14.780Z,98072.75
2023-03-13T22:33:41.239Z,98072.59
2023-03-13T22:36:08.152Z,98075.38
2023-03-13T22:38:38.870Z,98082.53
2023-03-13T22:41:06.998Z,98089.19
2023-03-13T22:43:33.813Z,98088.50
2023-03-13T22:46:00.639Z,98089.75
2023-03-13T22:48:27.360Z,98091.78
2023-03-13T22:51:07.293Z,98112.47
2023-03-13T22:53:35.534Z,98125.31
2023-03-13T22:56:02.062Z,98131.94
2023-03-13T22:58:28.506Z,98128.56
2023-03-13T23:00:55.219Z,98131.38
2023-03-13T23:03:22.323Z,98124.97
2023-03-13T23:05:48.902Z,98118.59
2023-03-13T23:08:16.198Z,98111.06
2023-03-13T23:10:46.444Z,98109.78
2023-03-13T23:13:13.522Z,98110.38
2023-03-13T23:15:55.323Z,98092.88
2023-03-13T23:18:23.338Z,98086.16
2023-03-13T23:20:49.780Z,98082.66
2023-03-13T23:23:16.721Z,98078.34
2023-03-13T23:25:43.198Z,98071.97
2023-03-13T23:28:09.604Z,98093.59
2023-03-13T23:30:36.416Z,98096.00
2023-03-13T23:33:02.996Z,98113.63
2023-03-13T23:35:29.664Z,98124.94
2023-03-13T23:37:56.100Z,98125.75
2023-03-13T23:40:23.275Z,98143.06
2023-03-13T23:42:51.242Z,98155.50
2023-03-13T23:45:18.049Z,98143.88
2023-03-13T23:47:44.741Z,98122.25
2023-03-13T23:50:12.328Z,98106.03
2023-03-13T23:52:39.086Z,98095.19
2023-03-13T23:55:05.843Z,98127.66
2023-03-13T23:57:32.670Z,98130.66
